sensor_id;sensor_type;location;lat;lon;timestamp;temperature;humidity
9919;DHT22;4998;51.024;13.828;2023-06-01T00:00:56;19.50;47.60
9919;DHT22;4998;51.024;13.828;2023-06-01T00:03:25;19.50;47.80
9919;DHT22;4998;51.024;13.828;2023-06-01T00:05:52;19.40;48.00
9919;DHT22;4998;51.024;13.828;2023-06-01T00:08:19;19.40;48.00
9919;DHT22;4998;51.024;13.828;2023-06-01T00:10:48;19.30;48.00
9919;DHT22;4998;51.024;13.828;2023-06-01T00:13:15;19.20;48.10
9919;DHT22;4998;51.024;13.828;2023-06-01T00:15:42;19.20;48.30
9919;DHT22;4998;51.024;13.828;2023-06-01T00:18:10;19.10;48.30
9919;DHT22;4998;51.024;13.828;2023-06-01T00:20:40;19.10;48.40
9919;DHT22;4998;51.024;13.828;2023-06-01T00:23:07;19.00;48.60
9919;DHT22;4998;51.024;13.828;2023-06-01T00:25:36;19.00;48.60
9919;DHT22;4998;51.024;13.828;2023-06-01T00:28:03;18.90;48.70
9919;DHT22;4998;51.024;13.828;2023-06-01T00:30:30;18.90;48.80
9919;DHT22;4998;51.024;13.828;2023-06-01T00:32:57;18.80;48.90
9919;DHT22;4998;51.024;13.828;2023-06-01T00:35:24;18.80;49.00
9919;DHT22;4998;51.024;13.828;2023-06-01T00:37:52;18.80;49.20
9919;DHT22;4998;51.024;13.828;2023-06-01T00:40:19;18.70;49.30
9919;DHT22;4998;51.024;13.828;2023-06-01T00:42:46;18.70;49.20
9919;DHT22;4998;51.024;13.828;2023-06-01T00:45:19;18.70;49.40
9919;DHT22;4998;51.024;13.828;2023-06-01T00:47:46;18.60;49.40
9919;DHT22;4998;51.024;13.828;2023-06-01T00:50:13;18.60;49.40
9919;DHT22;4998;51.024;13.828;2023-06-01T00:52:40;18.60;49.50
9919;DHT22;4998;51.024;13.828;2023-06-01T00:55:10;18.50;49.50
9919;DHT22;4998;51.024;13.828;2023-06-01T00:57:39;18.50;49.70
9919;DHT22;4998;51.024;13.828;2023-06-01T01:00:09;18.40;49.70
9919;DHT22;4998;51.024;13.828;2023-06-01T01:02:37;18.40;49.90
9919;DHT22;4998;51.024;13.828;2023-06-01T01:05:06;18.40;49.90
9919;DHT22;4998;51.024;13.828;2023-06-01T01:07:46;18.30;50.00
9919;DHT22;4998;51.024;13.828;2023-06-01T01:10:22;18.30;50.50
9919;DHT22;4998;51.024;13.828;2023-06-01T01:12:55;18.30;50.50
9919;DHT22;4998;51.024;13.828;2023-06-01T01:15:32;18.30;50.50
9919;DHT22;4998;51.024;13.828;2023-06-01T01:18:04;18.20;50.50
9919;DHT22;4998;51.024;13.828;2023-06-01T01:20:35;18.20;50.40
9919;DHT22;4998;51.024;13.828;2023-06-01T01:23:14;18.10;50.50
9919;DHT22;4998;51.024;13.828;2023-06-01T01:26:07;18.20;50.90
9919;DHT22;4998;51.024;13.828;2023-06-01T01:28:41;18.10;51.00
9919;DHT22;4998;51.024;13.828;2023-06-01T01:31:10;18.10;50.80
9919;DHT22;4998;51.024;13.828;2023-06-01T01:33:38;18.00;50.60
9919;DHT22;4998;51.024;13.828;2023-06-01T01:36:07;18.00;50.80
9919;DHT22;4998;51.024;13.828;2023-06-01T01:38:35;18.00;50.90
9919;DHT22;4998;51.024;13.828;2023-06-01T01:41:03;17.90;50.90
9919;DHT22;4998;51.024;13.828;2023-06-01T01:43:30;17.90;51.10
9919;DHT22;4998;51.024;13.828;2023-06-01T01:46:05;17.80;51.20
9919;DHT22;4998;51.024;13.828;2023-06-01T01:48:36;17.80;51.60
9919;DHT22;4998;51.024;13.828;2023-06-01T01:51:10;17.80;51.50
9919;DHT22;4998;51.024;13.828;2023-06-01T01:53:39;17.80;51.70
9919;DHT22;4998;51.024;13.828;2023-06-01T01:56:08;17.70;51.60
9919;DHT22;4998;51.024;13.828;2023-06-01T01:58:36;17.70;51.50
9919;DHT22;4998;51.024;13.828;2023-06-01T02:01:05;17.70;51.70
9919;DHT22;4998;51.024;13.828;2023-06-01T02:03:33;17.60;51.80
9919;DHT22;4998;51.024;13.828;2023-06-01T02:06:00;17.60;51.80
9919;DHT22;4998;51.024;13.828;2023-06-01T02:08:27;17.60;51.90
9919;DHT22;4998;51.024;13.828;2023-06-01T02:10:54;17.50;51.90
9919;DHT22;4998;51.024;13.828;2023-06-01T02:13:21;17.50;52.00
9919;DHT22;4998;51.024;13.828;2023-06-01T02:15:48;17.40;52.00
9919;DHT22;4998;51.024;13.828;2023-06-01T02:18:17;17.40;52.10
9919;DHT22;4998;51.024;13.828;2023-06-01T02:20:44;17.30;52.20
9919;DHT22;4998;51.024;13.828;2023-06-01T02:23:11;17.30;52.40
9919;DHT22;4998;51.024;13.828;2023-06-01T02:25:38;17.20;52.40
9919;DHT22;4998;51.024;13.828;2023-06-01T02:28:05;17.20;52.60
9919;DHT22;4998;51.024;13.828;2023-06-01T02:30:34;17.10;52.70
9919;DHT22;4998;51.024;13.828;2023-06-01T02:33:00;17.10;52.70
9919;DHT22;4998;51.024;13.828;2023-06-01T02:35:29;17.00;52.70
9919;DHT22;4998;51.024;13.828;2023-06-01T02:37:56;17.00;52.90
9919;DHT22;4998;51.024;13.828;2023-06-01T02:40:23;17.00;52.80
9919;DHT22;4998;51.024;13.828;2023-06-01T02:42:50;16.90;52.90
9919;DHT22;4998;51.024;13.828;2023-06-01T02:45:18;16.90;53.00
9919;DHT22;4998;51.024;13.828;2023-06-01T02:47:45;16.80;53.10
9919;DHT22;4998;51.024;13.828;2023-06-01T02:50:11;16.80;53.20
9919;DHT22;4998;51.024;13.828;2023-06-01T02:52:40;16.80;53.30
9919;DHT22;4998;51.024;13.828;2023-06-01T02:55:08;16.80;53.60
9919;DHT22;4998;51.024;13.828;2023-06-01T02:57:35;16.80;53.50
9919;DHT22;4998;51.024;13.828;2023-06-01T03:00:02;16.70;53.50
9919;DHT22;4998;51.024;13.828;2023-06-01T03:02:30;16.70;53.70
9919;DHT22;4998;51.024;13.828;2023-06-01T03:04:57;16.70;53.70
9919;DHT22;4998;51.024;13.828;2023-06-01T03:07:24;16.70;53.80
9919;DHT22;4998;51.024;13.828;2023-06-01T03:09:53;16.70;53.90
9919;DHT22;4998;51.024;13.828;2023-06-01T03:12:20;16.70;54.00
9919;DHT22;4998;51.024;13.828;2023-06-01T03:14:47;16.60;53.90
9919;DHT22;4998;51.024;13.828;2023-06-01T03:17:14;16.60;53.90
9919;DHT22;4998;51.024;13.828;2023-06-01T03:19:41;16.50;53.90
9919;DHT22;4998;51.024;13.828;2023-06-01T03:22:08;16.50;54.00
9919;DHT22;4998;51.024;13.828;2023-06-01T03:24:35;16.50;54.10
9919;DHT22;4998;51.024;13.828;2023-06-01T03:27:04;16.40;54.20
9919;DHT22;4998;51.024;13.828;2023-06-01T03:29:31;16.40;54.40
9919;DHT22;4998;51.024;13.828;2023-06-01T03:31:58;16.40;54.30
9919;DHT22;4998;51.024;13.828;2023-06-01T03:34:25;16.30;54.30
9919;DHT22;4998;51.024;13.828;2023-06-01T03:36:52;16.30;54.50
9919;DHT22;4998;51.024;13.828;2023-06-01T03:39:19;16.30;54.70
9919;DHT22;4998;51.024;13.828;2023-06-01T03:41:46;16.30;54.80
9919;DHT22;4998;51.024;13.828;2023-06-01T03:44:15;16.30;54.90
9919;DHT22;4998;51.024;13.828;2023-06-01T03:46:42;16.30;55.20
9919;DHT22;4998;51.024;13.828;2023-06-01T03:49:09;16.30;55.10
9919;DHT22;4998;51.024;13.828;2023-06-01T03:51:36;16.40;55.20
9919;DHT22;4998;51.024;13.828;2023-06-01T03:54:03;16.40;55.20
9919;DHT22;4998;51.024;13.828;2023-06-01T03:56:30;16.40;55.20
9919;DHT22;4998;51.024;13.828;2023-06-01T03:58:57;16.40;55.20
9919;DHT22;4998;51.024;13.828;2023-06-01T04:01:26;16.40;55.40
9919;DHT22;4998;51.024;13.828;2023-06-01T04:03:54;16.40;55.50
9919;DHT22;4998;51.024;13.828;2023-06-01T04:06:22;16.40;55.50
9919;DHT22;4998;51.024;13.828;2023-06-01T04:08:49;16.50;55.60
9919;DHT22;4998;51.024;13.828;2023-06-01T04:11:21;16.50;55.60
9919;DHT22;4998;51.024;13.828;2023-06-01T04:13:48;16.50;55.60
9919;DHT22;4998;51.024;13.828;2023-06-01T04:16:15;16.60;55.70
9919;DHT22;4998;51.024;13.828;2023-06-01T04:18:44;16.60;55.70
9919;DHT22;4998;51.024;13.828;2023-06-01T04:21:11;16.60;55.80
9919;DHT22;4998;51.024;13.828;2023-06-01T04:23:38;16.70;55.90
9919;DHT22;4998;51.024;13.828;2023-06-01T04:26:05;16.70;55.90
9919;DHT22;4998;51.024;13.828;2023-06-01T04:28:32;16.70;55.90
9919;DHT22;4998;51.024;13.828;2023-06-01T04:30:59;16.80;56.00
9919;DHT22;4998;51.024;13.828;2023-06-01T04:33:28;16.90;56.20
9919;DHT22;4998;51.024;13.828;2023-06-01T04:35:56;16.90;56.00
9919;DHT22;4998;51.024;13.828;2023-06-01T04:38:23;17.00;56.20
9919;DHT22;4998;51.024;13.828;2023-06-01T04:40:51;17.10;56.20
9919;DHT22;4998;51.024;13.828;2023-06-01T04:43:20;17.20;56.40
9919;DHT22;4998;51.024;13.828;2023-06-01T04:45:49;17.30;56.40
9919;DHT22;4998;51.024;13.828;2023-06-01T04:48:16;17.40;56.50
9919;DHT22;4998;51.024;13.828;2023-06-01T04:50:43;17.50;56.50
9919;DHT22;4998;51.024;13.828;2023-06-01T04:53:12;17.70;56.60
9919;DHT22;4998;51.024;13.828;2023-06-01T04:55:39;17.80;56.70
9919;DHT22;4998;51.024;13.828;2023-06-01T04:58:10;17.90;56.50
9919;DHT22;4998;51.024;13.828;2023-06-01T05:00:37;18.10;56.50
9919;DHT22;4998;51.024;13.828;2023-06-01T05:03:05;18.30;56.50
9919;DHT22;4998;51.024;13.828;2023-06-01T05:05:33;18.40;56.30
9919;DHT22;4998;51.024;13.828;2023-06-01T05:08:00;18.60;56.20
9919;DHT22;4998;51.024;13.828;2023-06-01T05:10:29;18.70;56.00
9919;DHT22;4998;51.024;13.828;2023-06-01T05:12:56;18.80;56.00
9919;DHT22;4998;51.024;13.828;2023-06-01T05:15:23;18.90;55.90
9919;DHT22;4998;51.024;13.828;2023-06-01T05:17:50;19.10;55.90
9919;DHT22;4998;51.024;13.828;2023-06-01T05:20:17;19.20;55.90
9919;DHT22;4998;51.024;13.828;2023-06-01T05:22:44;19.40;55.90
9919;DHT22;4998;51.024;13.828;2023-06-01T05:25:11;19.60;55.80
9919;DHT22;4998;51.024;13.828;2023-06-01T05:27:40;19.70;55.60
9919;DHT22;4998;51.024;13.828;2023-06-01T05:30:07;19.90;55.50
9919;DHT22;4998;51.024;13.828;2023-06-01T05:32:35;20.10;55.40
9919;DHT22;4998;51.024;13.828;2023-06-01T05:35:02;20.30;55.40
9919;DHT22;4998;51.024;13.828;2023-06-01T05:37:30;20.40;55.10
9919;DHT22;4998;51.024;13.828;2023-06-01T05:39:57;20.60;54.90
9919;DHT22;4998;51.024;13.828;2023-06-01T05:42:24;20.80;54.70
9919;DHT22;4998;51.024;13.828;2023-06-01T05:44:52;20.90;54.40
9919;DHT22;4998;51.024;13.828;2023-06-01T05:47:19;21.10;54.20
9919;DHT22;4998;51.024;13.828;2023-06-01T05:49:46;21.20;54.00
9919;DHT22;4998;51.024;13.828;2023-06-01T05:52:13;21.30;53.90
9919;DHT22;4998;51.024;13.828;2023-06-01T05:54:40;21.40;53.80
9919;DHT22;4998;51.024;13.828;2023-06-01T05:57:08;21.50;53.70
9919;DHT22;4998;51.024;13.828;2023-06-01T05:59:35;21.70;53.60
9919;DHT22;4998;51.024;13.828;2023-06-01T06:02:04;21.80;53.40
9919;DHT22;4998;51.024;13.828;2023-06-01T06:04:31;22.00;53.30
9919;DHT22;4998;51.024;13.828;2023-06-01T06:06:58;22.10;53.20
9919;DHT22;4998;51.024;13.828;2023-06-01T06:09:25;22.20;53.00
9919;DHT22;4998;51.024;13.828;2023-06-01T06:11:52;22.30;52.80
9919;DHT22;4998;51.024;13.828;2023-06-01T06:14:19;22.40;52.70
9919;DHT22;4998;51.024;13.828;2023-06-01T06:16:46;22.50;52.50
9919;DHT22;4998;51.024;13.828;2023-06-01T06:19:14;22.60;52.20
9919;DHT22;4998;51.024;13.828;2023-06-01T06:21:42;22.70;51.80
9919;DHT22;4998;51.024;13.828;2023-06-01T06:24:09;22.70;51.70
9919;DHT22;4998;51.024;13.828;2023-06-01T06:26:36;22.80;51.70
9919;DHT22;4998;51.024;13.828;2023-06-01T06:29:03;22.80;51.60
9919;DHT22;4998;51.024;13.828;2023-06-01T06:31:30;22.80;52.30
9919;DHT22;4998;51.024;13.828;2023-06-01T06:33:57;22.90;51.80
9919;DHT22;4998;51.024;13.828;2023-06-01T06:36:25;23.00;51.50
9919;DHT22;4998;51.024;13.828;2023-06-01T06:38:52;23.00;51.30
9919;DHT22;4998;51.024;13.828;2023-06-01T06:41:19;23.10;51.40
9919;DHT22;4998;51.024;13.828;2023-06-01T06:43:46;23.10;51.30
9919;DHT22;4998;51.024;13.828;2023-06-01T06:46:13;23.20;51.10
9919;DHT22;4998;51.024;13.828;2023-06-01T06:48:40;23.20;51.00
9919;DHT22;4998;51.024;13.828;2023-06-01T06:51:07;23.20;50.80
9919;DHT22;4998;51.024;13.828;2023-06-01T06:53:35;23.30;50.80
9919;DHT22;4998;51.024;13.828;2023-06-01T06:56:03;23.30;50.70
9919;DHT22;4998;51.024;13.828;2023-06-01T06:58:30;23.20;50.60
9919;DHT22;4998;51.024;13.828;2023-06-01T07:00:57;23.20;50.40
9919;DHT22;4998;51.024;13.828;2023-06-01T07:03:25;23.20;50.50
9919;DHT22;4998;51.024;13.828;2023-06-01T07:05:53;23.10;50.60
9919;DHT22;4998;51.024;13.828;2023-06-01T07:08:20;23.10;50.80
9919;DHT22;4998;51.024;13.828;2023-06-01T07:10:49;23.10;50.90
9919;DHT22;4998;51.024;13.828;2023-06-01T07:13:16;23.10;50.90
9919;DHT22;4998;51.024;13.828;2023-06-01T07:15:43;23.20;50.90
9919;DHT22;4998;51.024;13.828;2023-06-01T07:18:10;23.20;50.60
9919;DHT22;4998;51.024;13.828;2023-06-01T07:20:37;23.20;50.70
9919;DHT22;4998;51.024;13.828;2023-06-01T07:23:04;23.20;51.30
9919;DHT22;4998;51.024;13.828;2023-06-01T07:25:31;23.20;50.50
9919;DHT22;4998;51.024;13.828;2023-06-01T07:27:59;23.20;50.50
9919;DHT22;4998;51.024;13.828;2023-06-01T07:30:32;23.20;50.30
9919;DHT22;4998;51.024;13.828;2023-06-01T07:32:59;23.20;50.50
9919;DHT22;4998;51.024;13.828;2023-06-01T07:35:26;23.20;50.40
9919;DHT22;4998;51.024;13.828;2023-06-01T07:37:53;23.10;50.40
9919;DHT22;4998;51.024;13.828;2023-06-01T07:40:21;23.10;50.50
9919;DHT22;4998;51.024;13.828;2023-06-01T07:42:47;23.20;51.40
9919;DHT22;4998;51.024;13.828;2023-06-01T07:45:17;23.20;50.60
9919;DHT22;4998;51.024;13.828;2023-06-01T07:47:44;23.20;50.50
9919;DHT22;4998;51.024;13.828;2023-06-01T07:50:11;23.20;50.50
9919;DHT22;4998;51.024;13.828;2023-06-01T07:52:38;23.20;50.60
9919;DHT22;4998;51.024;13.828;2023-06-01T07:55:07;23.20;50.70
9919;DHT22;4998;51.024;13.828;2023-06-01T07:57:35;23.20;50.60
9919;DHT22;4998;51.024;13.828;2023-06-01T08:00:03;23.20;50.70
9919;DHT22;4998;51.024;13.828;2023-06-01T08:02:39;23.30;50.80
9919;DHT22;4998;51.024;13.828;2023-06-01T08:05:08;23.30;50.70
9919;DHT22;4998;51.024;13.828;2023-06-01T08:07:37;23.40;50.70
9919;DHT22;4998;51.024;13.828;2023-06-01T08:10:06;23.40;50.70
9919;DHT22;4998;51.024;13.828;2023-06-01T08:12:34;23.50;50.60
9919;DHT22;4998;51.024;13.828;2023-06-01T08:15:02;23.50;50.20
9919;DHT22;4998;51.024;13.828;2023-06-01T08:17:29;23.60;50.10
9919;DHT22;4998;51.024;13.828;2023-06-01T08:19:58;23.50;50.10
9919;DHT22;4998;51.024;13.828;2023-06-01T08:22:25;23.50;50.30
9919;DHT22;4998;51.024;13.828;2023-06-01T08:24:52;23.60;50.30
9919;DHT22;4998;51.024;13.828;2023-06-01T08:27:21;23.60;50.10
9919;DHT22;4998;51.024;13.828;2023-06-01T08:29:49;23.60;50.00
9919;DHT22;4998;51.024;13.828;2023-06-01T08:32:17;23.60;50.10
9919;DHT22;4998;51.024;13.828;2023-06-01T08:34:44;23.60;50.20
9919;DHT22;4998;51.024;13.828;2023-06-01T08:37:13;23.60;50.30
9919;DHT22;4998;51.024;13.828;2023-06-01T08:39:40;23.60;50.40
9919;DHT22;4998;51.024;13.828;2023-06-01T08:42:09;23.70;50.50
9919;DHT22;4998;51.024;13.828;2023-06-01T08:44:41;23.70;50.00
9919;DHT22;4998;51.024;13.828;2023-06-01T08:47:09;23.80;50.00
9919;DHT22;4998;51.024;13.828;2023-06-01T08:49:36;23.80;49.90
9919;DHT22;4998;51.024;13.828;2023-06-01T08:52:08;23.80;49.90
9919;DHT22;4998;51.024;13.828;2023-06-01T08:54:39;23.80;49.80
9919;DHT22;4998;51.024;13.828;2023-06-01T08:57:07;23.90;50.00
9919;DHT22;4998;51.024;13.828;2023-06-01T08:59:34;23.90;50.20
9919;DHT22;4998;51.024;13.828;2023-06-01T09:02:02;24.00;50.20
9919;DHT22;4998;51.024;13.828;2023-06-01T09:04:29;24.00;50.10
9919;DHT22;4998;51.024;13.828;2023-06-01T09:06:57;24.00;50.20
9919;DHT22;4998;51.024;13.828;2023-06-01T09:09:24;24.00;50.00
9919;DHT22;4998;51.024;13.828;2023-06-01T09:12:17;24.10;50.20
9919;DHT22;4998;51.024;13.828;2023-06-01T09:14:44;24.10;49.90
9919;DHT22;4998;51.024;13.828;2023-06-01T09:17:13;24.20;50.00
9919;DHT22;4998;51.024;13.828;2023-06-01T09:19:41;24.20;49.80
9919;DHT22;4998;51.024;13.828;2023-06-01T09:22:08;24.30;49.60
9919;DHT22;4998;51.024;13.828;2023-06-01T09:24:36;24.30;49.60
9919;DHT22;4998;51.024;13.828;2023-06-01T09:27:03;24.40;49.60
9919;DHT22;4998;51.024;13.828;2023-06-01T09:29:32;24.40;49.40
9919;DHT22;4998;51.024;13.828;2023-06-01T09:31:59;24.50;49.30
9919;DHT22;4998;51.024;13.828;2023-06-01T09:34:27;24.50;49.30
9919;DHT22;4998;51.024;13.828;2023-06-01T09:36:54;24.50;49.20
9919;DHT22;4998;51.024;13.828;2023-06-01T09:39:23;24.50;49.90
9919;DHT22;4998;51.024;13.828;2023-06-01T09:41:51;24.40;49.30
9919;DHT22;4998;51.024;13.828;2023-06-01T09:44:26;24.60;49.30
9919;DHT22;4998;51.024;13.828;2023-06-01T09:46:56;24.60;49.10
9919;DHT22;4998;51.024;13.828;2023-06-01T09:49:25;24.70;49.20
9919;DHT22;4998;51.024;13.828;2023-06-01T09:51:53;24.70;49.20
9919;DHT22;4998;51.024;13.828;2023-06-01T09:54:36;24.80;49.20
9919;DHT22;4998;51.024;13.828;2023-06-01T09:57:04;24.80;49.20
9919;DHT22;4998;51.024;13.828;2023-06-01T09:59:39;24.90;48.90
9919;DHT22;4998;51.024;13.828;2023-06-01T10:02:13;25.00;48.30
9919;DHT22;4998;51.024;13.828;2023-06-01T10:04:42;25.00;47.80
9919;DHT22;4998;51.024;13.828;2023-06-01T10:07:13;25.10;47.60
9919;DHT22;4998;51.024;13.828;2023-06-01T10:09:41;25.20;47.10
9919;DHT22;4998;51.024;13.828;2023-06-01T10:12:09;25.20;47.20
9919;DHT22;4998;51.024;13.828;2023-06-01T10:14:36;25.20;47.10
9919;DHT22;4998;51.024;13.828;2023-06-01T10:17:04;25.30;47.20
9919;DHT22;4998;51.024;13.828;2023-06-01T10:19:33;25.40;47.30
9919;DHT22;4998;51.024;13.828;2023-06-01T10:22:03;25.40;47.20
9919;DHT22;4998;51.024;13.828;2023-06-01T10:24:31;25.50;46.90
9919;DHT22;4998;51.024;13.828;2023-06-01T10:27:04;25.50;46.60
9919;DHT22;4998;51.024;13.828;2023-06-01T10:29:34;25.60;46.40
9919;DHT22;4998;51.024;13.828;2023-06-01T10:32:01;25.50;46.10
9919;DHT22;4998;51.024;13.828;2023-06-01T10:34:41;25.60;46.10
9919;DHT22;4998;51.024;13.828;2023-06-01T10:37:14;25.60;46.10
9919;DHT22;4998;51.024;13.828;2023-06-01T10:39:41;25.70;45.80
9919;DHT22;4998;51.024;13.828;2023-06-01T10:42:37;25.70;46.00
9919;DHT22;4998;51.024;13.828;2023-06-01T10:47:47;25.70;46.30
9919;DHT22;4998;51.024;13.828;2023-06-01T10:50:17;25.80;46.40
9919;DHT22;4998;51.024;13.828;2023-06-01T10:52:45;25.90;46.10
9919;DHT22;4998;51.024;13.828;2023-06-01T10:55:24;25.90;46.00
9919;DHT22;4998;51.024;13.828;2023-06-01T10:57:51;26.00;46.20
9919;DHT22;4998;51.024;13.828;2023-06-01T11:00:20;26.00;46.30
9919;DHT22;4998;51.024;13.828;2023-06-01T11:02:53;26.10;46.20
9919;DHT22;4998;51.024;13.828;2023-06-01T11:05:46;26.20;46.20
9919;DHT22;4998;51.024;13.828;2023-06-01T11:08:51;26.20;45.80
9919;DHT22;4998;51.024;13.828;2023-06-01T11:11:18;26.30;45.80
9919;DHT22;4998;51.024;13.828;2023-06-01T11:14:05;26.30;46.00
9919;DHT22;4998;51.024;13.828;2023-06-01T11:16:33;26.30;45.40
9919;DHT22;4998;51.024;13.828;2023-06-01T11:19:04;26.40;45.40
9919;DHT22;4998;51.024;13.828;2023-06-01T11:21:35;26.40;45.30
9919;DHT22;4998;51.024;13.828;2023-06-01T11:24:10;26.40;45.20
9919;DHT22;4998;51.024;13.828;2023-06-01T11:26:39;26.40;45.00
9919;DHT22;4998;51.024;13.828;2023-06-01T11:29:09;26.40;44.70
9919;DHT22;4998;51.024;13.828;2023-06-01T11:31:39;26.40;44.40
9919;DHT22;4998;51.024;13.828;2023-06-01T11:34:07;26.40;43.80
9919;DHT22;4998;51.024;13.828;2023-06-01T11:36:41;26.40;44.00
9919;DHT22;4998;51.024;13.828;2023-06-01T11:39:22;26.40;43.90
9919;DHT22;4998;51.024;13.828;2023-06-01T11:41:51;26.40;43.50
9919;DHT22;4998;51.024;13.828;2023-06-01T11:44:19;26.40;44.00
9919;DHT22;4998;51.024;13.828;2023-06-01T11:46:53;26.40;43.80
9919;DHT22;4998;51.024;13.828;2023-06-01T11:49:21;26.40;43.70
9919;DHT22;4998;51.024;13.828;2023-06-01T11:51:50;26.40;43.80
9919;DHT22;4998;51.024;13.828;2023-06-01T11:54:25;26.50;44.10
9919;DHT22;4998;51.024;13.828;2023-06-01T11:56:54;26.50;44.00
9919;DHT22;4998;51.024;13.828;2023-06-01T11:59:22;26.50;43.80
9919;DHT22;4998;51.024;13.828;2023-06-01T12:01:50;26.50;43.70
9919;DHT22;4998;51.024;13.828;2023-06-01T12:04:21;26.50;43.60
9919;DHT22;4998;51.024;13.828;2023-06-01T12:06:50;26.50;43.70
9919;DHT22;4998;51.024;13.828;2023-06-01T12:09:17;26.50;43.00
9919;DHT22;4998;51.024;13.828;2023-06-01T12:11:46;26.60;42.70
9919;DHT22;4998;51.024;13.828;2023-06-01T12:14:14;26.60;42.50
9919;DHT22;4998;51.024;13.828;2023-06-01T12:16:54;26.60;42.40
9919;DHT22;4998;51.024;13.828;2023-06-01T12:19:23;26.60;42.60
9919;DHT22;4998;51.024;13.828;2023-06-01T12:21:53;26.60;42.50
9919;DHT22;4998;51.024;13.828;2023-06-01T12:24:26;26.60;42.30
9919;DHT22;4998;51.024;13.828;2023-06-01T12:26:55;26.60;42.30
9919;DHT22;4998;51.024;13.828;2023-06-01T12:29:39;26.60;42.00
9919;DHT22;4998;51.024;13.828;2023-06-01T12:32:07;26.70;41.90
9919;DHT22;4998;51.024;13.828;2023-06-01T12:34:35;26.70;41.80
9919;DHT22;4998;51.024;13.828;2023-06-01T12:37:14;26.70;41.20
9919;DHT22;4998;51.024;13.828;2023-06-01T12:39:42;26.80;41.30
9919;DHT22;4998;51.024;13.828;2023-06-01T12:42:09;26.80;41.80
9919;DHT22;4998;51.024;13.828;2023-06-01T12:44:37;26.80;41.80
9919;DHT22;4998;51.024;13.828;2023-06-01T12:47:06;26.90;41.90
9919;DHT22;4998;51.024;13.828;2023-06-01T12:49:33;27.00;41.80
9919;DHT22;4998;51.024;13.828;2023-06-01T12:52:00;27.00;41.70
9919;DHT22;4998;51.024;13.828;2023-06-01T12:54:29;27.00;41.30
9919;DHT22;4998;51.024;13.828;2023-06-01T12:56:56;27.10;40.90
9919;DHT22;4998;51.024;13.828;2023-06-01T12:59:23;27.10;41.00
9919;DHT22;4998;51.024;13.828;2023-06-01T13:01:50;27.10;40.60
9919;DHT22;4998;51.024;13.828;2023-06-01T13:04:17;27.10;40.30
9919;DHT22;4998;51.024;13.828;2023-06-01T13:06:44;27.20;38.90
9919;DHT22;4998;51.024;13.828;2023-06-01T13:09:11;27.10;38.40
9919;DHT22;4998;51.024;13.828;2023-06-01T13:11:41;27.20;38.00
9919;DHT22;4998;51.024;13.828;2023-06-01T13:14:08;27.20;38.10
9919;DHT22;4998;51.024;13.828;2023-06-01T13:16:35;27.20;38.60
9919;DHT22;4998;51.024;13.828;2023-06-01T13:19:02;27.20;38.70
9919;DHT22;4998;51.024;13.828;2023-06-01T13:21:30;27.20;39.20
9919;DHT22;4998;51.024;13.828;2023-06-01T13:23:59;27.20;39.40
9919;DHT22;4998;51.024;13.828;2023-06-01T13:26:26;27.20;39.00
9919;DHT22;4998;51.024;13.828;2023-06-01T13:28:55;27.20;38.40
9919;DHT22;4998;51.024;13.828;2023-06-01T13:31:22;27.20;37.60
9919;DHT22;4998;51.024;13.828;2023-06-01T13:33:49;27.20;37.50
9919;DHT22;4998;51.024;13.828;2023-06-01T13:36:16;27.10;37.70
9919;DHT22;4998;51.024;13.828;2023-06-01T13:38:43;27.10;38.00
9919;DHT22;4998;51.024;13.828;2023-06-01T13:41:10;27.10;38.30
9919;DHT22;4998;51.024;13.828;2023-06-01T13:43:37;27.20;38.60
9919;DHT22;4998;51.024;13.828;2023-06-01T13:46:07;27.20;38.60
9919;DHT22;4998;51.024;13.828;2023-06-01T13:48:35;27.20;38.60
9919;DHT22;4998;51.024;13.828;2023-06-01T13:51:03;27.30;38.90
9919;DHT22;4998;51.024;13.828;2023-06-01T13:53:30;27.30;38.90
9919;DHT22;4998;51.024;13.828;2023-06-01T13:55:57;27.40;38.90
9919;DHT22;4998;51.024;13.828;2023-06-01T13:58:24;27.40;38.90
9919;DHT22;4998;51.024;13.828;2023-06-01T14:00:52;27.50;38.70
9919;DHT22;4998;51.024;13.828;2023-06-01T14:03:20;27.40;39.60
9919;DHT22;4998;51.024;13.828;2023-06-01T14:05:47;27.40;39.20
9919;DHT22;4998;51.024;13.828;2023-06-01T14:08:14;27.50;39.40
9919;DHT22;4998;51.024;13.828;2023-06-01T14:10:41;27.50;39.40
9919;DHT22;4998;51.024;13.828;2023-06-01T14:13:09;27.50;39.20
9919;DHT22;4998;51.024;13.828;2023-06-01T14:15:36;27.50;39.10
9919;DHT22;4998;51.024;13.828;2023-06-01T14:18:03;27.60;39.00
9919;DHT22;4998;51.024;13.828;2023-06-01T14:20:32;27.60;38.90
9919;DHT22;4998;51.024;13.828;2023-06-01T14:23:00;27.60;38.50
9919;DHT22;4998;51.024;13.828;2023-06-01T14:25:28;27.60;38.50
9919;DHT22;4998;51.024;13.828;2023-06-01T14:27:55;27.60;38.40
9919;DHT22;4998;51.024;13.828;2023-06-01T14:30:22;27.60;37.90
9919;DHT22;4998;51.024;13.828;2023-06-01T14:32:52;27.60;37.20
9919;DHT22;4998;51.024;13.828;2023-06-01T14:35:19;27.60;37.00
9919;DHT22;4998;51.024;13.828;2023-06-01T14:37:47;27.70;36.80
9919;DHT22;4998;51.024;13.828;2023-06-01T14:40:14;27.70;36.70
9919;DHT22;4998;51.024;13.828;2023-06-01T14:42:41;27.70;35.80
9919;DHT22;4998;51.024;13.828;2023-06-01T14:45:09;27.80;35.00
9919;DHT22;4998;51.024;13.828;2023-06-01T14:47:37;27.80;34.20
9919;DHT22;4998;51.024;13.828;2023-06-01T14:50:07;27.80;33.90
9919;DHT22;4998;51.024;13.828;2023-06-01T14:52:34;27.80;34.30
9919;DHT22;4998;51.024;13.828;2023-06-01T14:55:03;27.80;33.40
9919;DHT22;4998;51.024;13.828;2023-06-01T14:57:30;27.80;33.50
9919;DHT22;4998;51.024;13.828;2023-06-01T14:59:57;27.80;33.50
9919;DHT22;4998;51.024;13.828;2023-06-01T15:02:24;27.70;33.50
9919;DHT22;4998;51.024;13.828;2023-06-01T15:04:51;27.70;33.10
9919;DHT22;4998;51.024;13.828;2023-06-01T15:07:18;27.60;33.00
9919;DHT22;4998;51.024;13.828;2023-06-01T15:09:45;27.60;32.90
9919;DHT22;4998;51.024;13.828;2023-06-01T15:12:14;27.60;32.90
9919;DHT22;4998;51.024;13.828;2023-06-01T15:14:41;27.50;32.90
9919;DHT22;4998;51.024;13.828;2023-06-01T15:17:08;27.50;32.60
9919;DHT22;4998;51.024;13.828;2023-06-01T15:19:35;27.50;32.50
9919;DHT22;4998;51.024;13.828;2023-06-01T15:22:02;27.50;32.50
9919;DHT22;4998;51.024;13.828;2023-06-01T15:24:30;27.50;32.10
9919;DHT22;4998;51.024;13.828;2023-06-01T15:26:57;27.50;32.20
9919;DHT22;4998;51.024;13.828;2023-06-01T15:29:25;27.60;31.80
9919;DHT22;4998;51.024;13.828;2023-06-01T15:31:52;27.60;31.20
9919;DHT22;4998;51.024;13.828;2023-06-01T15:34:19;27.70;31.70
9919;DHT22;4998;51.024;13.828;2023-06-01T15:36:46;27.80;31.60
9919;DHT22;4998;51.024;13.828;2023-06-01T15:39:13;27.80;31.60
9919;DHT22;4998;51.024;13.828;2023-06-01T15:41:40;27.80;31.70
9919;DHT22;4998;51.024;13.828;2023-06-01T15:44:08;27.80;31.60
9919;DHT22;4998;51.024;13.828;2023-06-01T15:46:36;27.70;31.70
9919;DHT22;4998;51.024;13.828;2023-06-01T15:49:03;27.70;31.90
9919;DHT22;4998;51.024;13.828;2023-06-01T15:51:30;27.60;32.10
9919;DHT22;4998;51.024;13.828;2023-06-01T15:53:58;27.60;32.50
9919;DHT22;4998;51.024;13.828;2023-06-01T15:56:25;27.50;32.40